createdAt,value
2023-04-16T00:03:07.851Z,7.57
2023-04-16T00:10:27.779Z,7.44
2023-04-16T00:17:46.689Z,7.31
2023-04-16T00:25:05.690Z,7.18
2023-04-16T00:32:25.609Z,7.08
2023-04-16T00:39:44.397Z,6.96
2023-04-16T00:47:03.573Z,6.84
2023-04-16T00:54:23.465Z,6.67
2023-04-16T01:01:41.888Z,6.55
2023-04-16T01:09:00.890Z,6.52
2023-04-16T01:16:21.034Z,6.50
2023-04-16T01:23:40.866Z,6.70
2023-04-16T01:31:02.737Z,6.40
2023-04-16T01:38:31.434Z,6.25
2023-04-16T01:45:51.780Z,6.02
2023-04-16T01:53:10.220Z,5.88
2023-04-16T02:00:28.576Z,5.76
2023-04-16T02:07:48.454Z,5.74
2023-04-16T02:15:09.312Z,5.69
2023-04-16T02:22:27.767Z,5.64
2023-04-16T02:29:47.624Z,5.66
2023-04-16T02:37:09.581Z,5.64
2023-04-16T02:44:27.800Z,5.66
2023-04-16T02:51:47.458Z,5.68
2023-04-16T02:59:05.877Z,5.77
2023-04-16T03:06:24.469Z,5.83
2023-04-16T03:13:45.076Z,5.77
2023-04-16T03:21:03.536Z,5.73
2023-04-16T03:28:21.904Z,5.60
2023-04-16T03:35:42.296Z,5.55
2023-04-16T03:43:00.722Z,5.50
2023-04-16T03:50:20.626Z,5.55
2023-04-16T03:57:41.954Z,5.52
2023-04-16T04:05:03.961Z,5.61
2023-04-16T04:12:22.621Z,5.83
2023-04-16T04:19:54.333Z,6.36
2023-04-16T04:27:19.970Z,6.52
2023-04-16T04:34:38.352Z,6.52
2023-04-16T04:42:00.516Z,6.55
2023-04-16T04:49:19.496Z,6.63
2023-04-16T04:56:38.691Z,6.60
2023-04-16T05:03:58.447Z,6.73
2023-04-16T05:11:17.117Z,7.02
2023-04-16T05:18:35.324Z,7.52
2023-04-16T05:25:57.431Z,7.76
2023-04-16T05:33:15.842Z,8.21
2023-04-16T05:40:34.106Z,8.66
2023-04-16T05:47:54.025Z,8.98
2023-04-16T05:55:12.500Z,9.45
2023-04-16T06:02:32.164Z,10.50
2023-04-16T06:09:52.090Z,11.31
2023-04-16T06:17:10.603Z,11.55
2023-04-16T06:24:28.969Z,11.88
2023-04-16T06:31:49.921Z,12.87
2023-04-16T06:39:08.765Z,11.93
2023-04-16T06:46:27.476Z,12.75
2023-04-16T06:53:47.521Z,12.41
2023-04-16T07:01:06.073Z,13.39
2023-04-16T07:08:24.909Z,13.55
2023-04-16T07:15:44.753Z,13.32
2023-04-16T07:23:02.984Z,14.81
2023-04-16T07:30:21.220Z,14.40
2023-04-16T07:37:41.577Z,15.68
2023-04-16T07:44:59.799Z,16.20
2023-04-16T07:52:18.015Z,16.60
2023-04-16T07:59:37.571Z,16.01
2023-04-16T08:06:55.909Z,16.10
2023-04-16T08:14:13.994Z,15.19
2023-04-16T08:21:33.747Z,15.91
2023-04-16T08:28:51.784Z,17.14
2023-04-16T08:36:09.947Z,18.99
2023-04-16T08:43:30.476Z,19.33
2023-04-16T08:50:50.542Z,18.78
2023-04-16T08:58:14.775Z,19.49
2023-04-16T09:05:34.734Z,19.92
2023-04-16T09:12:52.882Z,19.89
2023-04-16T09:20:12.604Z,19.81
2023-04-16T09:27:32.382Z,19.98
2023-04-16T09:34:57.992Z,19.71
2023-04-16T09:42:16.249Z,20.39
2023-04-16T09:49:37.277Z,19.38
2023-04-16T09:56:58.470Z,18.69
2023-04-16T10:04:17.007Z,18.65
2023-04-16T10:11:36.887Z,19.93
2023-04-16T10:18:55.413Z,19.39
2023-04-16T10:26:13.646Z,20.22
2023-04-16T10:33:35.234Z,19.46
2023-04-16T10:41:00.717Z,17.64
2023-04-16T10:48:20.130Z,17.12
2023-04-16T10:55:41.216Z,16.71
2023-04-16T11:02:59.940Z,18.75
2023-04-16T11:10:18.140Z,17.60
2023-04-16T11:17:40.598Z,16.87
2023-04-16T11:24:59.144Z,17.51
2023-04-16T11:32:22.026Z,17.36
2023-04-16T11:39:52.179Z,16.02
2023-04-16T11:47:13.890Z,15.99
2023-04-16T11:54:35.005Z,17.52
2023-04-16T12:01:56.237Z,18.38
2023-04-16T12:09:24.565Z,17.49
2023-04-16T12:16:42.801Z,18.42
2023-04-16T12:24:06.993Z,17.38
2023-04-16T12:31:38.436Z,18.96
2023-04-16T12:38:56.544Z,18.91
2023-04-16T12:46:16.429Z,19.09
2023-04-16T12:53:34.631Z,19.07
2023-04-16T13:00:52.875Z,19.48
2023-04-16T13:08:12.857Z,19.82
2023-04-16T13:15:31.098Z,18.08
2023-04-16T13:22:49.311Z,17.32
2023-04-16T13:30:11.810Z,16.90
2023-04-16T13:37:30.914Z,17.09
2023-04-16T13:44:53.137Z,17.34
2023-04-16T13:52:12.701Z,17.19
2023-04-16T13:59:30.955Z,17.53
2023-04-16T14:06:54.322Z,16.96
2023-04-16T14:14:13.925Z,17.68
2023-04-16T14:21:32.336Z,17.60
2023-04-16T14:28:53.309Z,17.66
2023-04-16T14:36:17.906Z,17.49
2023-04-16T14:43:45.053Z,16.88
2023-04-16T14:51:04.718Z,16.88
2023-04-16T14:58:30.534Z,16.73
2023-04-16T15:05:55.977Z,16.63
2023-04-16T15:13:14.224Z,16.39
2023-04-16T15:20:34.075Z,16.59
2023-04-16T15:27:52.360Z,16.66
2023-04-16T15:35:11.480Z,16.76
2023-04-16T15:42:32.535Z,16.74
2023-04-16T15:49:50.901Z,16.38
2023-04-16T15:57:09.808Z,16.57
2023-04-16T16:04:30.338Z,16.49
2023-04-16T16:11:48.806Z,16.26
2023-04-16T16:19:08.244Z,16.16
2023-04-16T16:26:28.260Z,15.97
2023-04-16T16:33:46.842Z,15.64
2023-04-16T16:41:05.687Z,15.15
2023-04-16T16:48:25.838Z,14.89
2023-04-16T16:55:44.241Z,14.58
2023-04-16T17:03:02.979Z,14.37
2023-04-16T17:10:23.523Z,14.26
2023-04-16T17:17:42.096Z,14.09
2023-04-16T17:25:00.689Z,13.91
2023-04-16T17:32:20.727Z,13.86
2023-04-16T17:39:39.181Z,13.55
2023-04-16T17:46:59.039Z,13.51
2023-04-16T17:54:19.546Z,13.32
2023-04-16T18:01:41.523Z,12.98
2023-04-16T18:09:00.979Z,12.70
2023-04-16T18:16:22.728Z,12.61
2023-04-16T18:23:41.580Z,12.43
2023-04-16T18:31:04.943Z,12.38
2023-04-16T18:38:25.050Z,12.44
2023-04-16T18:45:43.660Z,12.17
2023-04-16T18:53:02.544Z,12.24
2023-04-16T19:00:23.150Z,12.17
2023-04-16T19:07:42.080Z,12.29
2023-04-16T19:15:03.706Z,12.23
2023-04-16T19:22:23.724Z,12.08
2023-04-16T19:29:43.729Z,11.96
2023-04-16T19:37:02.193Z,11.81
2023-04-16T19:44:23.634Z,11.86
2023-04-16T19:51:42.121Z,11.71
2023-04-16T19:59:15.743Z,11.63
2023-04-16T20:06:35.785Z,11.41
2023-04-16T20:13:54.603Z,11.29
2023-04-16T20:21:13.949Z,11.13
2023-04-16T20:28:36.893Z,11.06
2023-04-16T20:35:56.360Z,11.00
2023-04-16T20:43:19.180Z,10.97
2023-04-16T20:50:43.367Z,10.89
2023-04-16T20:58:03.233Z,10.80
2023-04-16T21:05:25.262Z,10.77
2023-04-16T21:12:49.650Z,10.71
2023-04-16T21:20:11.048Z,10.68
2023-04-16T21:27:30.739Z,10.57
2023-04-16T21:34:51.250Z,10.62
2023-04-16T21:42:09.663Z,10.56
2023-04-16T21:49:27.942Z,10.36
2023-04-16T21:56:47.794Z,10.17
2023-04-16T22:04:07.823Z,10.12
2023-04-16T22:11:26.384Z,10.14
2023-04-16T22:18:47.513Z,10.04
2023-04-16T22:26:06.479Z,10.08
2023-04-16T22:33:25.105Z,10.07
2023-04-16T22:40:45.294Z,10.05
2023-04-16T22:48:04.249Z,10.09
2023-04-16T22:55:23.071Z,9.97
2023-04-16T23:02:43.384Z,9.89
2023-04-16T23:10:01.996Z,9.85
2023-04-16T23:17:21.700Z,9.82
2023-04-16T23:24:41.541Z,9.77
2023-04-16T23:31:59.847Z,9.79
2023-04-16T23:39:18.447Z,9.63
2023-04-16T23:46:39.535Z,9.59
2023-04-16T23:53:57.721Z,9.60
